Time;durP1;ratioP1;P1;durP2;ratioP2;P2;SDS_P1;SDS_P2;PMS_P1;PMS_P2;Temp;Humidity;BMP_temperature;BMP_pressure;BME280_temperature;BME280_humidity;BME280_pressure;Samples;Min_cycle;Max_cycle;Signal;HPM_P1;HPM_P2
2022/11/26 00:00:07;;;;;;;;;5.00;5.00;;;;;19.99;53.39;101530.96;105589;1272;21934;-64
2022/11/26 00:02:54;;;;;;;;;4.00;4.00;;;;;19.97;53.17;101536.00;105611;1279;19184;-62
2022/11/26 00:05:22;;;;;;;;;4.00;4.00;;;;;19.98;53.24;101535.76;105642;1286;21501;-62
2022/11/26 00:07:49;;;;;;;;;5.00;5.00;;;;;19.97;53.27;101538.88;105645;1279;20026;-62
2022/11/26 00:10:17;;;;;;;;;5.00;4.00;;;;;19.98;53.19;101538.13;105639;1295;19200;-63
2022/11/26 00:12:45;;;;;;;;;7.50;5.00;;;;;19.97;53.37;101538.02;105644;1297;19682;-62
2022/11/26 00:15:12;;;;;;;;;6.00;4.50;;;;;19.97;53.28;101535.27;105625;1281;22959;-62
2022/11/26 00:17:40;;;;;;;;;7.00;5.00;;;;;19.97;53.49;101534.71;105516;1293;259898;-62
2022/11/26 00:20:07;;;;;;;;;6.00;5.00;;;;;19.97;53.19;101533.99;105688;1296;20705;-65
2022/11/26 00:22:34;;;;;;;;;4.00;4.00;;;;;19.98;53.18;101529.77;105645;1297;20032;-63
2022/11/26 00:25:02;;;;;;;;;5.00;5.00;;;;;19.97;53.20;101539.76;105696;1296;19220;-63
2022/11/26 00:27:29;;;;;;;;;7.00;5.00;;;;;19.98;53.33;101543.02;105648;1296;21005;-63
2022/11/26 00:29:57;;;;;;;;;5.00;5.00;;;;;19.97;53.31;101543.04;105639;1282;21753;-63
2022/11/26 00:32:24;;;;;;;;;6.00;5.00;;;;;19.97;53.22;101549.45;105647;1279;19100;-63
2022/11/26 00:34:52;;;;;;;;;5.00;4.00;;;;;19.97;53.26;101552.36;105657;1297;19233;-63
2022/11/26 00:37:19;;;;;;;;;4.00;4.00;;;;;19.97;53.12;101550.73;105624;1297;20053;-64
2022/11/26 00:39:46;;;;;;;;;4.00;4.00;;;;;19.96;53.08;101552.60;105690;1297;23900;-63
2022/11/26 00:42:14;;;;;;;;;5.00;4.00;;;;;19.97;53.04;101551.48;105676;1280;23170;-63
2022/11/26 00:44:41;;;;;;;;;7.00;5.00;;;;;19.96;53.06;101552.20;105663;1274;20067;-62
2022/11/26 00:47:09;;;;;;;;;4.00;4.00;;;;;19.97;53.27;101553.48;105632;1287;20532;-64
2022/11/26 00:49:36;;;;;;;;;4.00;4.00;;;;;19.96;53.03;101553.89;105700;1297;20841;-63
2022/11/26 00:52:04;;;;;;;;;7.00;7.00;;;;;19.97;53.17;101554.31;105652;1291;20377;-65
2022/11/26 00:54:31;;;;;;;;;7.00;7.00;;;;;19.97;52.88;101558.11;105659;1297;23461;-64
2022/11/26 00:56:59;;;;;;;;;4.00;4.00;;;;;19.96;53.01;101553.85;105662;1271;20950;-63
2022/11/26 00:59:26;;;;;;;;;;;;;;;19.96;53.13;101550.45;105634;1272;20163;-63
2022/11/26 01:01:53;;;;;;;;;7.00;5.00;;;;;19.96;53.17;101549.23;105622;1279;19414;-63
2022/11/26 01:04:21;;;;;;;;;4.50;4.50;;;;;19.97;53.09;101558.18;105693;1287;25111;-63
2022/11/26 01:06:48;;;;;;;;;5.00;5.00;;;;;19.96;53.10;101558.91;105680;1297;22787;-63
2022/11/26 01:09:16;;;;;;;;;4.00;4.00;;;;;19.95;53.22;101562.83;105641;1288;19208;-64
2022/11/26 01:11:43;;;;;;;;;4.00;4.00;;;;;19.96;52.96;101565.17;105667;1296;24322;-63
2022/11/26 01:14:11;;;;;;;;;5.00;5.00;;;;;19.95;52.99;101563.95;105656;1297;21604;-63
2022/11/26 01:16:40;;;;;;;;;5.00;4.00;;;;;19.95;52.80;101569.19;105642;1296;19583;-63
2022/11/26 01:19:08;;;;;;;;;5.00;5.00;;;;;19.96;52.89;101568.71;105662;1303;23739;-64
2022/11/26 01:21:35;;;;;;;;;4.00;4.00;;;;;19.96;52.81;101570.76;105651;1294;20009;-63
2022/11/26 01:24:03;;;;;;;;;5.00;4.00;;;;;19.96;53.04;101574.20;105646;1282;19225;-63
2022/11/26 01:26:30;;;;;;;;;4.00;4.00;;;;;19.95;52.88;101575.40;105640;1272;20803;-64
2022/11/26 01:28:58;;;;;;;;;7.50;5.00;;;;;19.95;53.02;101576.02;105639;1288;21018;-63
2022/11/26 01:31:25;;;;;;;;;5.00;4.00;;;;;19.95;52.76;101570.71;105583;1279;19296;-64
2022/11/26 01:33:53;;;;;;;;;5.00;5.00;;;;;19.93;52.98;101571.05;105701;1297;19258;-64
2022/11/26 01:36:21;;;;;;;;;5.00;5.00;;;;;19.93;52.90;101577.95;105681;1282;23835;-63
2022/11/26 01:38:48;;;;;;;;;5.00;5.00;;;;;19.94;52.99;101576.22;105691;1289;19669;-63
2022/11/26 01:41:15;;;;;;;;;5.00;4.00;;;;;19.93;52.94;101578.66;105624;1297;20643;-63
2022/11/26 01:43:43;;;;;;;;;5.00;5.00;;;;;19.94;52.89;101577.00;105658;1300;21496;-64
2022/11/26 01:46:10;;;;;;;;;8.00;7.00;;;;;19.93;52.81;101579.61;105707;1297;19083;-65
2022/11/26 01:48:38;;;;;;;;;8.00;8.00;;;;;19.93;52.95;101578.90;105648;1273;23605;-63
2022/11/26 01:51:05;;;;;;;;;7.00;5.00;;;;;19.94;52.68;101582.61;105658;1279;20075;-63
2022/11/26 01:53:32;;;;;;;;;8.00;7.00;;;;;19.94;52.73;101585.53;105611;1288;23880;-63
2022/11/26 01:56:00;;;;;;;;;7.00;4.00;;;;;19.94;52.60;101586.95;105640;1291;19406;-63
2022/11/26 01:58:27;;;;;;;;;6.00;6.00;;;;;19.94;52.49;101587.45;105682;1295;21472;-63
2022/11/26 02:00:55;;;;;;;;;7.50;7.00;;;;;19.94;52.43;101585.50;105675;1297;19607;-63
2022/11/26 02:03:22;;;;;;;;;7.00;5.00;;;;;19.93;52.57;101587.73;105669;1289;20670;-63
2022/11/26 02:05:50;;;;;;;;;4.00;4.00;;;;;19.93;52.65;101588.68;105658;1279;20101;-64
2022/11/26 02:08:17;;;;;;;;;9.00;7.50;;;;;19.93;52.40;101589.06;105668;1274;19501;-63
2022/11/26 02:10:44;;;;;;;;;8.00;7.00;;;;;19.92;52.76;101590.58;105651;1279;19252;-64
2022/11/26 02:13:12;;;;;;;;;5.00;5.00;;;;;19.93;52.71;101591.57;105695;1296;20217;-64
2022/11/26 02:15:39;;;;;;;;;7.00;5.00;;;;;19.93;52.35;101593.97;105690;1271;19212;-64
2022/11/26 02:18:07;;;;;;;;;7.00;5.00;;;;;19.92;52.65;101599.12;105669;1297;23918;-63
2022/11/26 02:20:34;;;;;;;;;5.00;5.00;;;;;19.92;52.39;101594.16;105652;1287;23722;-64
2022/11/26 02:23:01;;;;;;;;;9.00;7.50;;;;;19.93;52.22;101598.48;105676;1279;19703;-64
2022/11/26 02:25:29;;;;;;;;;5.00;5.00;;;;;19.92;52.41;101597.98;105687;1297;22692;-64
2022/11/26 02:27:56;;;;;;;;;10.00;8.00;;;;;19.93;52.57;101601.02;105703;1287;21593;-63
2022/11/26 02:30:24;;;;;;;;;4.00;4.00;;;;;19.92;52.29;101598.17;105659;1297;19120;-62
2022/11/26 02:32:51;;;;;;;;;5.00;5.00;;;;;19.92;52.42;101600.20;105611;1280;19284;-63
2022/11/26 02:35:19;;;;;;;;;4.50;4.00;;;;;19.92;52.48;101601.98;105673;1295;21667;-62
2022/11/26 02:37:46;;;;;;;;;7.00;7.00;;;;;19.92;52.42;101602.21;105658;1297;19154;-63
2022/11/26 02:40:13;;;;;;;;;5.00;4.00;;;;;19.92;52.39;101604.53;105697;1297;19237;-63
2022/11/26 02:42:41;;;;;;;;;5.00;5.00;;;;;19.91;52.37;101606.07;105659;1296;20253;-64
2022/11/26 02:45:08;;;;;;;;;7.00;6.00;;;;;19.93;52.44;101608.31;105621;1279;19280;-64
2022/11/26 02:47:36;;;;;;;;;5.00;5.00;;;;;19.91;52.35;101609.14;105629;1301;19250;-63
2022/11/26 02:50:03;;;;;;;;;4.00;4.00;;;;;19.90;52.44;101604.77;105679;1296;20077;-64
2022/11/26 02:52:31;;;;;;;;;8.00;8.00;;;;;19.92;52.17;101606.94;105658;1279;22267;-64
2022/11/26 02:54:58;;;;;;;;;5.00;5.00;;;;;19.92;52.29;101605.10;105640;1297;19248;-63
2022/11/26 02:57:25;;;;;;;;;8.00;5.00;;;;;19.91;52.05;101602.45;105657;1295;21715;-64
2022/11/26 02:59:53;;;;;;;;;7.00;5.00;;;;;19.91;52.23;101600.48;105671;1275;19527;-63
2022/11/26 03:02:20;;;;;;;;;4.00;4.00;;;;;19.91;52.41;101599.75;105677;1297;20599;-63
2022/11/26 03:04:48;;;;;;;;;5.00;5.00;;;;;19.91;52.10;101603.73;105679;1279;21590;-63
2022/11/26 03:07:15;;;;;;;;;10.00;5.00;;;;;19.91;52.40;101607.69;105611;1279;19384;-63
2022/11/26 03:09:43;;;;;;;;;11.00;8.00;;;;;19.91;52.16;101609.52;105648;1279;24161;-64
2022/11/26 03:12:10;;;;;;;;;5.00;5.00;;;;;19.91;52.19;101609.67;105661;1288;21559;-63
2022/11/26 03:14:38;;;;;;;;;7.00;7.00;;;;;19.91;52.24;101613.92;105672;1271;23553;-62
2022/11/26 03:17:05;;;;;;;;;7.00;7.00;;;;;19.91;52.22;101614.60;105682;1295;20718;-63
2022/11/26 03:19:33;;;;;;;;;5.00;5.00;;;;;19.91;52.08;101616.61;105669;1297;21875;-63
2022/11/26 03:22:00;;;;;;;;;4.50;4.50;;;;;19.91;52.33;101617.87;105756;1288;22344;-64
2022/11/26 03:24:27;;;;;;;;;7.50;7.00;;;;;19.90;52.13;101620.64;105666;1272;19373;-64
2022/11/26 03:26:55;;;;;;;;;8.00;7.00;;;;;19.91;52.12;101624.59;105679;1279;21302;-64
2022/11/26 03:29:22;;;;;;;;;4.50;4.50;;;;;19.91;52.16;101626.20;105693;1288;19649;-63
2022/11/26 03:31:50;;;;;;;;;6.50;5.00;;;;;19.90;52.10;101629.22;105651;1279;20708;-63
2022/11/26 03:34:17;;;;;;;;;7.00;5.00;;;;;19.90;52.09;101635.40;105729;1297;21697;-64
2022/11/26 03:36:44;;;;;;;;;;;;;;;19.89;51.85;101640.16;105694;1272;19260;-63
2022/11/26 03:39:12;;;;;;;;;8.00;8.00;;;;;19.91;52.08;101644.42;105665;1292;19099;-63
2022/11/26 03:41:42;;;;;;;;;5.00;5.00;;;;;19.89;52.01;101649.04;105686;1297;20142;-64
2022/11/26 03:44:10;;;;;;;;;5.00;5.00;;;;;19.90;52.08;101643.42;105637;1275;24244;-64
2022/11/26 03:46:37;;;;;;;;;5.00;5.00;;;;;19.89;51.97;101640.02;105673;1297;19468;-63
2022/11/26 03:49:05;;;;;;;;;8.00;7.00;;;;;19.90;52.01;101646.98;105722;1296;19961;-63
2022/11/26 03:51:32;;;;;;;;;7.00;5.00;;;;;19.90;51.85;101643.05;105670;1289;19137;-63
2022/11/26 03:54:00;;;;;;;;;7.00;6.00;;;;;19.90;51.90;101647.41;105676;1298;19263;-64
2022/11/26 03:56:28;;;;;;;;;8.00;7.00;;;;;19.89;51.95;101650.20;105651;1300;23069;-64
2022/11/26 03:58:55;;;;;;;;;6.00;5.00;;;;;19.88;51.96;101651.91;105699;1289;19199;-63
2022/11/26 04:01:22;;;;;;;;;6.00;5.00;;;;;19.88;51.94;101647.70;105707;1272;19300;-64
2022/11/26 04:03:50;;;;;;;;;7.00;7.00;;;;;19.89;51.99;101649.98;105686;1281;21765;-64
2022/11/26 04:06:17;;;;;;;;;7.00;7.00;;;;;19.89;51.82;101653.45;105674;1279;23169;-63
2022/11/26 04:08:45;;;;;;;;;8.00;7.00;;;;;19.89;51.90;101651.52;105575;1298;20710;-64
2022/11/26 04:11:12;;;;;;;;;7.00;7.00;;;;;19.88;51.99;101658.21;105708;1279;20155;-63
2022/11/26 04:13:40;;;;;;;;;7.00;5.00;;;;;19.88;51.81;101659.91;105717;1287;19653;-62
2022/11/26 04:16:07;;;;;;;;;7.00;5.00;;;;;19.88;51.79;101662.42;105727;1283;19209;-62
2022/11/26 04:18:35;;;;;;;;;8.00;8.00;;;;;19.89;51.89;101662.13;105686;1288;21629;-63
2022/11/26 04:21:02;;;;;;;;;7.00;7.00;;;;;19.89;51.74;101667.64;105703;1278;19387;-63
2022/11/26 04:23:29;;;;;;;;;6.00;6.00;;;;;19.89;51.90;101670.33;105691;1295;19405;-63
2022/11/26 04:25:57;;;;;;;;;8.00;7.00;;;;;19.88;51.86;101674.94;105641;1279;22787;-62
2022/11/26 04:28:24;;;;;;;;;7.00;5.00;;;;;19.88;51.57;101676.77;105573;1297;19193;-63
2022/11/26 04:30:52;;;;;;;;;7.50;7.50;;;;;19.87;51.68;101677.75;105539;1297;19717;-63
2022/11/26 04:33:19;;;;;;;;;7.00;7.00;;;;;19.88;51.70;101680.04;105610;1271;24912;-63
2022/11/26 04:35:47;;;;;;;;;10.00;7.00;;;;;19.87;51.89;101681.19;105678;1290;21291;-62
2022/11/26 04:38:14;;;;;;;;;6.00;6.00;;;;;19.88;51.97;101679.36;105639;1290;20610;-63
2022/11/26 04:40:42;;;;;;;;;;;;;;;19.87;51.81;101677.96;105656;1280;24019;-64
2022/11/26 04:43:09;;;;;;;;;8.00;7.00;;;;;19.87;51.81;101680.14;105716;1288;19672;-62
2022/11/26 04:45:37;;;;;;;;;6.00;6.00;;;;;19.87;51.77;101686.33;105612;1295;23317;-63
2022/11/26 04:48:04;;;;;;;;;8.00;7.00;;;;;19.88;51.78;101689.49;105595;1272;20408;-61
2022/11/26 04:50:32;;;;;;;;;7.00;7.00;;;;;19.87;51.78;101691.73;105647;1279;19218;-62
2022/11/26 04:52:59;;;;;;;;;;;;;;;19.88;51.72;101696.03;105701;1279;19494;-62
2022/11/26 04:55:26;;;;;;;;;7.00;5.00;;;;;19.88;51.62;101700.40;105669;1297;20143;-63
2022/11/26 04:57:54;;;;;;;;;8.00;8.00;;;;;19.87;51.63;101696.48;105698;1297;19198;-63
2022/11/26 05:00:22;;;;;;;;;7.00;7.00;;;;;19.87;51.71;101702.98;105762;1288;19356;-62
2022/11/26 05:02:49;;;;;;;;;;;;;;;19.87;51.40;101704.58;105605;1279;23491;-62
2022/11/26 05:05:17;;;;;;;;;8.00;8.00;;;;;19.86;51.72;101705.91;105672;1281;19214;-62
2022/11/26 05:07:44;;;;;;;;;8.50;7.00;;;;;19.86;51.52;101707.96;105666;1296;19242;-63
2022/11/26 05:10:11;;;;;;;;;;;;;;;19.87;51.71;101714.27;105687;1281;23213;-62
2022/11/26 05:12:39;;;;;;;;;8.00;8.00;;;;;19.87;51.48;101717.52;105652;1288;19712;-63
2022/11/26 05:15:06;;;;;;;;;7.00;6.00;;;;;19.87;51.70;101716.39;105659;1282;22700;-63
2022/11/26 05:17:34;;;;;;;;;8.00;7.50;;;;;19.87;51.46;101714.27;105667;1288;21805;-64
2022/11/26 05:20:01;;;;;;;;;;;;;;;19.85;51.73;101713.31;105639;1281;19600;-64
2022/11/26 05:22:29;;;;;;;;;5.00;5.00;;;;;19.85;51.41;101713.67;105684;1297;19334;-64
2022/11/26 05:24:56;;;;;;;;;4.50;4.50;;;;;19.86;51.50;101720.27;105701;1281;22914;-63
2022/11/26 05:27:23;;;;;;;;;;;;;;;19.86;51.58;101723.04;105657;1292;19626;-63
2022/11/26 05:29:51;;;;;;;;;7.00;7.00;;;;;19.87;51.53;101728.55;105679;1297;21468;-62
2022/11/26 05:32:18;;;;;;;;;8.00;7.00;;;;;19.86;51.64;101730.88;105618;1279;22939;-63
2022/11/26 05:34:46;;;;;;;;;8.00;7.00;;;;;19.87;51.33;101729.33;105658;1289;19674;-63
2022/11/26 05:37:13;;;;;;;;;8.00;7.00;;;;;19.86;51.33;101739.73;105732;1271;22633;-64
2022/11/26 05:39:40;;;;;;;;;7.00;7.00;;;;;19.86;51.48;101741.55;105687;1300;20079;-63
2022/11/26 05:42:08;;;;;;;;;7.00;7.00;;;;;19.86;51.36;101742.81;105697;1279;19192;-63
2022/11/26 05:44:35;;;;;;;;;8.00;7.00;;;;;19.86;51.51;101749.70;105694;1295;20711;-63
2022/11/26 05:47:03;;;;;;;;;10.00;7.00;;;;;19.86;51.35;101755.67;105711;1279;20095;-63
2022/11/26 05:49:30;;;;;;;;;8.00;7.00;;;;;19.86;51.28;101753.15;105655;1285;22193;-63
2022/11/26 05:51:58;;;;;;;;;7.00;7.00;;;;;19.86;51.36;101756.23;105668;1295;19249;-63
2022/11/26 05:54:25;;;;;;;;;11.00;7.00;;;;;19.86;51.40;101765.47;105702;1297;21578;-63
2022/11/26 05:56:52;;;;;;;;;7.00;7.00;;;;;19.85;51.16;101771.34;105666;1295;19199;-63
2022/11/26 05:59:20;;;;;;;;;8.00;5.00;;;;;19.85;51.22;101779.13;105642;1279;20725;-63
2022/11/26 06:01:47;;;;;;;;;7.00;7.00;;;;;19.85;51.45;101782.28;105678;1297;20067;-62
2022/11/26 06:04:15;;;;;;;;;8.00;5.00;;;;;19.86;51.30;101788.35;105703;1282;22675;-62
2022/11/26 06:06:42;;;;;;;;;8.00;7.00;;;;;19.85;51.35;101786.95;105651;1279;19321;-63
2022/11/26 06:09:09;;;;;;;;;7.00;7.00;;;;;19.85;51.43;101789.88;105642;1290;20149;-61
2022/11/26 06:11:37;;;;;;;;;5.00;5.00;;;;;19.84;51.18;101789.59;105661;1271;19210;-65
2022/11/26 06:14:04;;;;;;;;;6.00;6.00;;;;;19.85;51.33;101793.17;105632;1295;19560;-64
2022/11/26 06:16:32;;;;;;;;;7.00;7.00;;;;;19.85;51.35;101795.69;105645;1288;20172;-63
2022/11/26 06:18:59;;;;;;;;;6.00;6.00;;;;;19.84;51.53;101795.77;105670;1298;22952;-62
2022/11/26 06:21:27;;;;;;;;;7.00;7.00;;;;;19.84;51.20;101792.14;105628;1292;19350;-62
2022/11/26 06:23:54;;;;;;;;;;;;;;;19.84;51.22;101785.84;105523;1278;21772;-63
2022/11/26 06:26:21;;;;;;;;;8.00;7.00;;;;;19.84;51.18;101794.58;105597;1297;23223;-62
2022/11/26 06:28:49;;;;;;;;;7.00;7.00;;;;;19.83;51.27;101795.89;105677;1279;19237;-62
2022/11/26 06:31:16;;;;;;;;;10.00;7.50;;;;;19.84;51.04;101802.33;105681;1279;20302;-63
2022/11/26 06:33:44;;;;;;;;;7.00;5.00;;;;;19.84;51.39;101805.00;105657;1297;22754;-63
2022/11/26 06:36:11;;;;;;;;;10.00;7.00;;;;;19.85;51.16;101813.33;105625;1290;19887;-64
2022/11/26 06:38:39;;;;;;;;;7.00;7.00;;;;;19.84;51.15;101811.59;105664;1271;21561;-63
2022/11/26 06:41:06;;;;;;;;;7.00;5.00;;;;;19.83;51.29;101811.48;105678;1272;20637;-65
2022/11/26 06:43:33;;;;;;;;;7.00;7.00;;;;;19.83;51.37;101816.04;105631;1279;21270;-63
2022/11/26 06:46:02;;;;;;;;;5.00;5.00;;;;;19.83;51.40;101813.11;105568;1279;20263;-64
2022/11/26 06:48:29;;;;;;;;;7.50;7.50;;;;;19.83;51.16;101813.85;105585;1279;19416;-64
2022/11/26 06:50:57;;;;;;;;;8.00;7.00;;;;;19.83;51.32;101813.45;105623;1295;19386;-65
2022/11/26 06:53:24;;;;;;;;;8.00;7.00;;;;;19.84;51.17;101811.35;105575;1295;22430;-64
2022/11/26 06:55:52;;;;;;;;;7.00;7.00;;;;;19.85;51.14;101814.05;105533;1271;19264;-64
2022/11/26 06:58:19;;;;;;;;;7.50;6.00;;;;;19.85;51.36;101819.66;105686;1279;19517;-65
2022/11/26 07:00:46;;;;;;;;;5.00;5.00;;;;;19.85;51.11;101820.48;105582;1279;23008;-63
2022/11/26 07:03:14;;;;;;;;;7.00;5.00;;;;;19.85;51.04;101825.79;105635;1279;19133;-63
2022/11/26 07:05:41;;;;;;;;;8.00;4.00;;;;;19.85;51.29;101827.21;105665;1287;19334;-63
2022/11/26 07:08:09;;;;;;;;;8.00;8.00;;;;;19.85;51.39;101831.94;105668;1296;21547;-63
2022/11/26 07:10:36;;;;;;;;;7.00;7.00;;;;;19.85;51.27;101828.68;105610;1271;19616;-63
2022/11/26 07:13:04;;;;;;;;;8.00;7.00;;;;;19.86;51.29;101831.89;105715;1271;23839;-63
2022/11/26 07:15:31;;;;;;;;;10.00;7.00;;;;;19.86;51.44;101836.77;105669;1279;20288;-62
2022/11/26 07:17:59;;;;;;;;;8.00;7.00;;;;;19.86;51.48;101845.84;105635;1279;19233;-62
2022/11/26 07:20:26;;;;;;;;;7.00;6.00;;;;;19.86;51.47;101850.16;105652;1279;22150;-63
2022/11/26 07:22:54;;;;;;;;;8.00;8.00;;;;;19.87;51.35;101857.19;105642;1297;20393;-62
2022/11/26 07:25:21;;;;;;;;;10.00;7.00;;;;;19.88;51.35;101856.56;105725;1277;19180;-62
2022/11/26 07:27:49;;;;;;;;;7.00;6.00;;;;;19.88;51.52;101859.56;105678;1272;19323;-63
2022/11/26 07:30:16;;;;;;;;;7.00;5.00;;;;;19.89;51.59;101860.41;105649;1280;20307;-63
2022/11/26 07:32:44;;;;;;;;;5.00;5.00;;;;;19.90;51.41;101858.31;105660;1288;19717;-63
2022/11/26 07:35:11;;;;;;;;;5.00;5.00;;;;;19.90;51.49;101861.95;105636;1281;19569;-63
2022/11/26 07:37:38;;;;;;;;;5.00;5.00;;;;;19.90;51.60;101868.25;105642;1296;21948;-63
2022/11/26 07:40:06;;;;;;;;;6.00;5.00;;;;;19.91;51.63;101867.14;105696;1297;19205;-63
2022/11/26 07:42:33;;;;;;;;;5.00;5.00;;;;;19.91;51.59;101866.79;105672;1296;20711;-62
2022/11/26 07:45:02;;;;;;;;;8.00;8.00;;;;;19.91;51.53;101867.65;105670;1295;21460;-61
2022/11/26 07:47:30;;;;;;;;;5.00;5.00;;;;;19.91;51.78;101868.71;105654;1271;19348;-63
2022/11/26 07:49:57;;;;;;;;;10.00;7.00;;;;;19.92;51.40;101866.66;105654;1279;19783;-63
2022/11/26 07:52:24;;;;;;;;;8.00;8.00;;;;;19.93;51.62;101875.89;105681;1275;21564;-64
2022/11/26 07:54:52;;;;;;;;;6.00;6.00;;;;;19.91;51.46;101876.20;105716;1297;20045;-62
2022/11/26 07:57:21;;;;;;;;;10.50;8.00;;;;;19.93;51.43;101881.98;105683;1281;19258;-63
2022/11/26 07:59:48;;;;;;;;;7.00;7.00;;;;;19.96;51.61;101883.52;105648;1279;23422;-63
2022/11/26 08:02:16;;;;;;;;;10.00;8.00;;;;;19.96;51.35;101886.08;105620;1297;19233;-62
2022/11/26 08:04:43;;;;;;;;;6.50;6.00;;;;;19.97;51.43;101888.20;105788;1279;19454;-63
2022/11/26 08:07:11;;;;;;;;;9.00;8.00;;;;;19.96;51.53;101894.04;105628;1291;24227;-62
2022/11/26 08:09:38;;;;;;;;;7.50;7.50;;;;;19.98;51.21;101897.48;105601;1280;19165;-63
2022/11/26 08:12:06;;;;;;;;;10.00;7.00;;;;;19.99;51.33;101908.46;105635;1295;19440;-62
2022/11/26 08:14:33;;;;;;;;;10.00;8.00;;;;;20.01;51.35;101913.75;105679;1279;20046;-63
2022/11/26 08:17:01;;;;;;;;;7.50;5.00;;;;;20.01;51.61;101913.35;105663;1280;21653;-62
2022/11/26 08:19:28;;;;;;;;;7.00;7.00;;;;;20.02;51.43;101918.21;105647;1294;19633;-63
2022/11/26 08:21:56;;;;;;;;;7.00;7.00;;;;;20.03;51.44;101915.20;105655;1290;21611;-62
2022/11/26 08:24:23;;;;;;;;;7.00;5.00;;;;;20.03;51.71;101920.05;105664;1279;19233;-64
2022/11/26 08:26:51;;;;;;;;;7.00;7.00;;;;;20.01;51.43;101920.97;105661;1285;19468;-62
2022/11/26 08:29:18;;;;;;;;;5.00;5.00;;;;;20.00;51.66;101924.84;105666;1288;22788;-64
2022/11/26 08:31:46;;;;;;;;;8.00;8.00;;;;;19.98;51.53;101923.27;105631;1282;19962;-62
2022/11/26 08:34:14;;;;;;;;;6.00;5.00;;;;;19.98;51.55;101929.79;105694;1290;20685;-62
2022/11/26 08:36:41;;;;;;;;;10.00;8.00;;;;;19.98;51.42;101929.61;105618;1295;21597;-61
2022/11/26 08:39:09;;;;;;;;;7.50;7.50;;;;;19.97;51.83;101930.96;105663;1288;19180;-62
2022/11/26 08:41:36;;;;;;;;;9.50;9.00;;;;;20.01;51.58;101930.59;105583;1272;20778;-63
2022/11/26 08:44:04;;;;;;;;;66.00;50.00;;;;;20.03;51.51;101933.13;105619;1274;21392;-61
2022/11/26 08:46:31;;;;;;;;;89.00;66.00;;;;;20.02;51.76;101935.74;105633;1272;23786;-62
2022/11/26 08:48:58;;;;;;;;;109.50;79.50;;;;;20.02;51.80;101940.67;105659;1271;20948;-63
2022/11/26 08:51:26;;;;;;;;;105.00;74.50;;;;;20.04;51.69;101943.45;105612;1288;20530;-62
2022/11/26 08:53:53;;;;;;;;;93.50;64.50;;;;;20.04;51.90;101942.98;105639;1281;23489;-60
2022/11/26 08:56:21;;;;;;;;;84.00;58.00;;;;;20.08;52.06;101945.55;105508;1288;21098;-63
2022/11/26 08:58:50;;;;;;;;;73.00;56.50;;;;;20.10;52.22;101949.05;105521;1289;21479;-60
2022/11/26 09:01:18;;;;;;;;;64.00;48.00;;;;;20.11;52.76;101956.88;105577;1287;23045;-63
2022/11/26 09:03:45;;;;;;;;;;;;;;;20.11;52.80;101955.87;105654;1282;21747;-63
2022/11/26 09:06:12;;;;;;;;;48.00;40.00;;;;;20.07;53.29;101955.64;105652;1297;20062;-62
2022/11/26 09:09:11;;;;;;;;;46.00;36.00;;;;;20.06;52.95;101958.08;105623;1271;19136;-61
2022/11/26 09:11:33;;;;;;;;;33.50;27.50;;;;;20.10;53.48;101962.85;105612;1297;21063;-60
2022/11/26 09:14:00;;;;;;;;;37.00;28.00;;;;;20.09;53.85;101965.20;105624;1272;21904;-61
2022/11/26 09:16:27;;;;;;;;;30.00;25.00;;;;;20.10;53.81;101971.86;105631;1295;23159;-60
2022/11/26 09:18:55;;;;;;;;;27.00;21.00;;;;;20.09;54.23;101977.38;105598;1275;23245;-60
2022/11/26 09:21:22;;;;;;;;;26.00;23.00;;;;;20.09;54.18;101976.67;105677;1279;20119;-62
2022/11/26 09:23:50;;;;;;;;;;;;;;;20.10;54.09;101980.56;105664;1272;21174;-62
2022/11/26 09:26:20;;;;;;;;;25.00;20.00;;;;;20.08;54.02;101975.69;105653;1279;20369;-62
2022/11/26 09:28:48;;;;;;;;;24.00;21.00;;;;;20.05;53.51;101979.25;105743;1272;20153;-61
2022/11/26 09:31:15;;;;;;;;;17.00;15.00;;;;;20.02;52.86;101975.52;105668;1288;19274;-62
2022/11/26 09:33:42;;;;;;;;;22.00;16.00;;;;;20.01;52.48;101973.63;105556;1288;20891;-62
2022/11/26 09:36:10;;;;;;;;;14.00;12.00;;;;;20.04;52.44;101975.19;105642;1272;20482;-62
2022/11/26 09:38:37;;;;;;;;;12.00;11.50;;;;;20.06;52.51;101972.42;105609;1279;19167;-61
2022/11/26 09:41:05;;;;;;;;;;;;;;;20.07;53.02;101967.06;105561;1279;24557;-63
2022/11/26 09:43:32;;;;;;;;;12.00;11.00;;;;;20.07;53.02;101964.52;105674;1279;20744;-62
2022/11/26 09:46:00;;;;;;;;;20.00;12.00;;;;;20.09;52.52;101967.44;105647;1298;19307;-63
2022/11/26 09:48:27;;;;;;;;;14.50;13.50;;;;;20.09;52.74;101971.76;105598;1279;19700;-62
2022/11/26 09:50:55;;;;;;;;;11.50;11.50;;;;;20.11;52.82;101969.77;105620;1295;20092;-62
2022/11/26 09:53:24;;;;;;;;;8.00;8.00;;;;;20.12;52.98;101964.13;105610;1279;19061;-64
2022/11/26 09:55:51;;;;;;;;;;;;;;;20.13;53.05;101963.66;105638;1279;19447;-60
2022/11/26 09:58:19;;;;;;;;;14.50;13.00;;;;;20.14;52.68;101963.68;105643;1295;20209;-62
2022/11/26 10:00:47;;;;;;;;;12.00;9.00;;;;;20.16;52.51;101967.45;105611;1279;23044;-63
2022/11/26 10:03:14;;;;;;;;;14.00;11.00;;;;;20.14;52.54;101969.44;105570;1287;20852;-66
2022/11/26 10:05:41;;;;;;;;;11.00;11.00;;;;;20.12;52.64;101972.75;105576;1290;23571;-62
2022/11/26 10:08:09;;;;;;;;;8.00;7.50;;;;;20.13;52.80;101977.79;105559;1279;19361;-62
2022/11/26 10:10:36;;;;;;;;;11.00;8.00;;;;;20.13;52.87;101980.99;105638;1279;19254;-63
2022/11/26 10:13:04;;;;;;;;;8.00;8.00;;;;;20.14;53.04;101986.89;105626;1295;21489;-62
2022/11/26 10:15:32;;;;;;;;;;;;;;;20.15;53.10;101986.31;105564;1279;24184;-62
2022/11/26 10:17:59;;;;;;;;;10.50;9.00;;;;;20.15;53.22;101993.19;105545;1279;20560;-61
2022/11/26 10:20:27;;;;;;;;;;;;;;;20.15;52.76;101998.27;105563;1279;22948;-63
2022/11/26 10:22:54;;;;;;;;;8.00;7.00;;;;;20.16;53.15;102000.33;105569;1279;19109;-60
2022/11/26 10:25:22;;;;;;;;;10.00;9.33;;;;;20.16;53.25;102001.77;105593;1281;22031;-64
2022/11/26 10:27:49;;;;;;;;;11.50;7.50;;;;;20.14;53.14;102001.45;105576;1275;20076;-64
2022/11/26 10:30:17;;;;;;;;;;;;;;;20.13;53.30;101998.95;105609;1279;20227;-63
2022/11/26 10:32:44;;;;;;;;;12.50;10.50;;;;;20.14;53.14;101997.23;105625;1289;18984;-62
2022/11/26 10:35:12;;;;;;;;;;;;;;;20.16;53.01;101995.61;105566;1279;20286;-62
2022/11/26 10:37:39;;;;;;;;;7.00;7.00;;;;;20.14;53.06;101992.20;105530;1296;19206;-63
2022/11/26 10:40:07;;;;;;;;;13.00;10.00;;;;;20.13;53.16;101994.29;105625;1297;19262;-64
2022/11/26 10:42:34;;;;;;;;;8.00;8.00;;;;;20.13;52.91;101995.41;105616;1279;20116;-62
2022/11/26 10:45:01;;;;;;;;;10.00;8.00;;;;;20.13;52.84;101994.61;105550;1281;19976;-62
2022/11/26 10:47:29;;;;;;;;;10.00;7.00;;;;;20.14;53.00;101989.50;105651;1294;19330;-61
2022/11/26 10:49:57;;;;;;;;;8.00;7.50;;;;;20.15;53.14;101992.96;105589;1295;20113;-61
2022/11/26 10:52:24;;;;;;;;;11.00;8.00;;;;;20.14;53.03;101990.88;105721;1279;20050;-63
2022/11/26 10:54:52;;;;;;;;;12.00;10.00;;;;;20.14;53.01;101996.20;105617;1281;19513;-63
2022/11/26 10:57:19;;;;;;;;;12.00;11.00;;;;;20.14;53.01;101996.92;105652;1297;21514;-62
2022/11/26 10:59:47;;;;;;;;;12.00;10.00;;;;;20.15;52.78;102002.38;105640;1274;19245;-62
2022/11/26 11:02:14;;;;;;;;;11.50;10.50;;;;;20.18;53.01;102003.04;105711;1297;20808;-62
2022/11/26 11:04:41;;;;;;;;;;;;;;;20.20;53.08;102003.59;105687;1279;20082;-62
2022/11/26 11:07:09;;;;;;;;;11.50;10.00;;;;;20.19;53.00;102006.24;105741;1300;22980;-62
2022/11/26 11:09:36;;;;;;;;;10.00;8.00;;;;;20.17;52.87;102014.93;105661;1279;19329;-62
2022/11/26 11:12:04;;;;;;;;;8.00;8.00;;;;;20.14;52.51;102017.55;105576;1279;20284;-62
2022/11/26 11:14:31;;;;;;;;;9.00;7.50;;;;;20.13;52.30;102028.39;105559;1279;19320;-62
2022/11/26 11:16:59;;;;;;;;;10.00;8.00;;;;;20.11;52.52;102026.76;105690;1280;23546;-61
2022/11/26 11:19:26;;;;;;;;;10.00;8.00;;;;;20.09;52.55;102025.46;105697;1295;22034;-62